createdAt,value
2019-04-07T00:00:41.098Z,4.80
2019-04-07T00:03:09.679Z,4.70
2019-04-07T00:05:38.125Z,4.28
2019-04-07T00:08:06.798Z,4.25
2019-04-07T00:10:35.577Z,4.10
2019-04-07T00:13:04.248Z,3.80
2019-04-07T00:15:33.268Z,3.83
2019-04-07T00:18:02.313Z,4.37
2019-04-07T00:20:33.505Z,4.28
2019-04-07T00:23:02.071Z,4.03
2019-04-07T00:25:30.572Z,4.50
2019-04-07T00:27:59.662Z,4.60
2019-04-07T00:30:28.287Z,4.60
2019-04-07T00:32:56.790Z,3.98
2019-04-07T00:35:30.978Z,4.00
2019-04-07T00:37:55.550Z,4.17
2019-04-07T00:40:24.091Z,4.45
2019-04-07T00:42:52.526Z,4.42
2019-04-07T00:45:21.540Z,4.00
2019-04-07T00:47:50.520Z,4.28
2019-04-07T00:50:19.511Z,4.75
2019-04-07T00:52:48.139Z,4.62
2019-04-07T00:55:16.742Z,4.35
2019-04-07T00:57:45.616Z,4.50
2019-04-07T01:00:17.038Z,4.03
2019-04-07T01:02:45.433Z,4.58
2019-04-07T01:05:13.968Z,4.58
2019-04-07T01:07:43.124Z,4.33
2019-04-07T01:10:12.699Z,4.20
2019-04-07T01:12:41.155Z,3.90
2019-04-07T01:15:10.879Z,3.77
2019-04-07T01:17:39.459Z,3.90
2019-04-07T01:20:09.443Z,3.70
2019-04-07T01:22:37.902Z,3.87
2019-04-07T01:25:07.281Z,3.90
2019-04-07T01:27:35.841Z,4.47
2019-04-07T01:30:06.286Z,3.55
2019-04-07T01:32:34.835Z,4.20
2019-04-07T01:35:03.656Z,4.50
2019-04-07T01:37:32.125Z,3.95
2019-04-07T01:40:01.451Z,3.80
2019-04-07T01:42:44.384Z,3.77
2019-04-07T01:45:31.156Z,3.95
2019-04-07T01:48:02.005Z,3.90
2019-04-07T01:50:40.892Z,4.22
2019-04-07T01:53:28.005Z,3.83
2019-04-07T01:56:07.629Z,3.95
2019-04-07T01:58:43.660Z,4.20
2019-04-07T02:01:19.464Z,3.75
2019-04-07T02:03:52.762Z,3.27
2019-04-07T02:06:28.576Z,4.12
2019-04-07T02:08:58.664Z,3.60
2019-04-07T02:11:35.075Z,3.85
2019-04-07T02:14:16.827Z,3.98
2019-04-07T02:17:03.013Z,4.60
2019-04-07T02:19:49.109Z,4.08
2019-04-07T02:22:32.050Z,4.40
2019-04-07T02:25:02.211Z,4.15
2019-04-07T02:27:32.721Z,3.95
2019-04-07T02:30:05.999Z,3.70
2019-04-07T02:32:54.491Z,3.77
2019-04-07T02:35:25.798Z,4.30
2019-04-07T02:37:58.764Z,4.28
2019-04-07T02:40:28.847Z,4.30
2019-04-07T02:42:59.037Z,4.15
2019-04-07T02:45:45.116Z,4.05
2019-04-07T02:48:24.248Z,3.83
2019-04-07T02:50:54.959Z,3.92
2019-04-07T02:53:37.874Z,3.90
2019-04-07T02:56:14.096Z,3.77
2019-04-07T02:58:47.760Z,4.10
2019-04-07T03:01:27.762Z,3.65
2019-04-07T03:04:09.665Z,3.98
2019-04-07T03:06:53.480Z,3.97
2019-04-07T03:09:26.059Z,3.72
2019-04-07T03:11:56.507Z,4.22
2019-04-07T03:14:33.422Z,5.00
2019-04-07T03:17:13.818Z,5.42
2019-04-07T03:20:00.829Z,5.28
2019-04-07T03:22:31.060Z,5.95
2019-04-07T03:25:04.052Z,7.30
2019-04-07T03:27:42.784Z,6.80
2019-04-07T03:30:13.723Z,6.25
2019-04-07T03:32:46.799Z,5.92
2019-04-07T03:35:22.799Z,5.15
2019-04-07T03:37:57.165Z,4.10
2019-04-07T03:40:44.234Z,4.60
2019-04-07T03:43:32.896Z,4.53
2019-04-07T03:46:18.508Z,4.00
2019-04-07T03:48:48.702Z,4.08
2019-04-07T03:51:34.924Z,3.62
2019-04-07T03:54:21.186Z,4.50
2019-04-07T03:56:51.802Z,3.70
2019-04-07T03:59:22.292Z,4.25
2019-04-07T04:02:01.031Z,4.33
2019-04-07T04:04:39.861Z,4.75
2019-04-07T04:07:28.457Z,5.15
2019-04-07T04:09:50.248Z,5.03
2019-04-07T04:12:25.779Z,4.85
2019-04-07T04:14:59.851Z,4.95
2019-04-07T04:17:28.632Z,6.03
2019-04-07T04:19:57.392Z,5.80
2019-04-07T04:22:26.212Z,5.87
2019-04-07T04:24:55.442Z,5.55
2019-04-07T04:27:24.240Z,5.65
2019-04-07T04:29:53.370Z,5.87
2019-04-07T04:32:23.150Z,5.70
2019-04-07T04:34:51.854Z,5.87
2019-04-07T04:37:34.328Z,6.00
2019-04-07T04:39:51.193Z,5.62
2019-04-07T04:42:20.388Z,5.60
2019-04-07T04:44:49.117Z,5.72
2019-04-07T04:47:17.633Z,5.72
2019-04-07T04:49:46.150Z,5.95
2019-04-07T04:52:15.601Z,6.28
2019-04-07T04:54:44.436Z,5.42
2019-04-07T04:57:13.225Z,5.83
2019-04-07T04:59:42.242Z,4.58
2019-04-07T05:02:10.875Z,4.62
2019-04-07T05:04:39.812Z,4.55
2019-04-07T05:07:08.418Z,4.97
2019-04-07T05:09:44.233Z,4.72
2019-04-07T05:12:07.112Z,5.08
2019-04-07T05:14:35.554Z,5.33
2019-04-07T05:17:04.100Z,5.50
2019-04-07T05:19:33.399Z,5.40
2019-04-07T05:22:02.474Z,6.20
2019-04-07T05:24:31.278Z,6.42
2019-04-07T05:27:00.044Z,5.75
2019-04-07T05:29:29.066Z,5.90
2019-04-07T05:31:57.728Z,6.08
2019-04-07T05:34:26.722Z,5.62
2019-04-07T05:36:55.331Z,5.95
2019-04-07T05:39:25.001Z,6.22
2019-04-07T05:41:54.755Z,6.05
2019-04-07T05:44:23.469Z,6.20
2019-04-07T05:46:52.832Z,6.67
2019-04-07T05:49:24.089Z,6.42
2019-04-07T05:51:52.427Z,7.03
2019-04-07T05:54:20.942Z,6.67
2019-04-07T05:56:50.191Z,7.15
2019-04-07T05:59:18.821Z,6.78
2019-04-07T06:01:49.874Z,6.85
2019-04-07T06:04:19.169Z,6.60
2019-04-07T06:06:51.217Z,6.92
2019-04-07T06:09:20.299Z,6.58
2019-04-07T06:11:48.672Z,6.58
2019-04-07T06:14:17.288Z,6.50
2019-04-07T06:16:45.773Z,6.78
2019-04-07T06:19:14.883Z,7.00
2019-04-07T06:21:46.168Z,6.90
2019-04-07T06:24:14.581Z,6.62
2019-04-07T06:26:47.595Z,6.78
2019-04-07T06:29:13.320Z,7.60
2019-04-07T06:31:42.328Z,7.62
2019-04-07T06:34:12.100Z,7.65
2019-04-07T06:36:40.632Z,8.15
2019-04-07T06:39:09.503Z,7.35
2019-04-07T06:41:38.938Z,8.15
2019-04-07T06:44:11.981Z,7.87
2019-04-07T06:46:42.419Z,7.37
2019-04-07T06:49:13.965Z,7.85
2019-04-07T06:52:02.942Z,7.45
2019-04-07T06:54:35.265Z,7.17
2019-04-07T06:57:20.599Z,8.10
2019-04-07T06:59:53.512Z,8.10
2019-04-07T07:02:30.926Z,8.20
2019-04-07T07:05:06.679Z,8.45
2019-04-07T07:07:53.100Z,7.75
2019-04-07T07:10:32.597Z,8.25
2019-04-07T07:13:15.517Z,8.45
2019-04-07T07:15:42.703Z,7.05
2019-04-07T07:18:21.265Z,8.50
2019-04-07T07:20:51.437Z,8.03
2019-04-07T07:23:25.284Z,8.40
2019-04-07T07:25:53.787Z,7.37
2019-04-07T07:28:22.760Z,7.33
2019-04-07T07:30:53.382Z,8.13
2019-04-07T07:33:22.175Z,7.65
2019-04-07T07:35:50.873Z,7.80
2019-04-07T07:38:19.379Z,7.55
2019-04-07T07:40:49.357Z,7.03
2019-04-07T07:43:18.532Z,7.80
2019-04-07T07:45:48.541Z,7.85
2019-04-07T07:48:17.522Z,7.62
2019-04-07T07:50:46.994Z,6.45
2019-04-07T07:53:15.814Z,6.17
2019-04-07T07:55:44.503Z,6.97
2019-04-07T07:58:13.893Z,7.62
2019-04-07T08:00:43.397Z,7.00
2019-04-07T08:03:12.132Z,7.80
2019-04-07T08:05:40.938Z,7.78
2019-04-07T08:08:09.439Z,7.10
2019-04-07T08:10:38.182Z,7.67
2019-04-07T08:13:07.865Z,7.72
2019-04-07T08:15:36.993Z,6.80
2019-04-07T08:18:07.628Z,7.37
2019-04-07T08:20:35.616Z,7.37
2019-04-07T08:23:04.714Z,7.15
2019-04-07T08:25:34.648Z,7.50
2019-04-07T08:28:04.608Z,8.03
2019-04-07T08:30:33.361Z,7.78
2019-04-07T08:33:02.433Z,8.60
2019-04-07T08:35:35.662Z,7.58
2019-04-07T08:38:02.172Z,8.95
2019-04-07T08:40:30.905Z,8.73
2019-04-07T08:42:59.489Z,8.90
2019-04-07T08:45:30.998Z,8.93
2019-04-07T08:47:58.136Z,8.40
2019-04-07T08:50:28.521Z,8.08
2019-04-07T08:52:56.768Z,7.97
2019-04-07T08:55:25.649Z,7.78
2019-04-07T08:57:55.002Z,8.45
2019-04-07T09:00:26.073Z,9.03
2019-04-07T09:03:03.669Z,9.85
2019-04-07T09:05:28.675Z,8.75
2019-04-07T09:07:55.165Z,9.90
2019-04-07T09:10:33.516Z,12.73
2019-04-07T09:13:04.846Z,12.53
2019-04-07T09:15:50.433Z,12.45
2019-04-07T09:18:20.615Z,11.03
2019-04-07T09:21:07.839Z,11.48
2019-04-07T09:23:50.608Z,12.45
2019-04-07T09:26:22.531Z,13.05
2019-04-07T09:28:58.734Z,13.30
2019-04-07T09:31:34.954Z,13.03
2019-04-07T09:34:22.241Z,11.90
2019-04-07T09:36:53.252Z,14.10
2019-04-07T09:39:25.890Z,12.75
2019-04-07T09:41:56.047Z,14.55
2019-04-07T09:44:33.984Z,14.03
2019-04-07T09:47:04.218Z,15.80
2019-04-07T09:49:35.297Z,15.98
2019-04-07T09:52:14.044Z,15.95
2019-04-07T09:54:46.102Z,15.80
2019-04-07T09:57:25.884Z,15.13
2019-04-07T09:59:56.499Z,16.17
2019-04-07T10:02:39.420Z,15.63
2019-04-07T10:05:12.676Z,15.45
2019-04-07T10:07:43.779Z,15.95
2019-04-07T10:10:23.752Z,15.05
2019-04-07T10:12:54.347Z,16.42
2019-04-07T10:15:33.800Z,16.12
2019-04-07T10:18:04.164Z,18.12
2019-04-07T10:20:52.408Z,18.82
2019-04-07T10:23:25.436Z,19.60
2019-04-07T10:26:14.534Z,20.17
2019-04-07T10:28:56.940Z,22.10
2019-04-07T10:31:27.096Z,22.60
2019-04-07T10:34:13.331Z,22.60
2019-04-07T10:36:55.727Z,21.85
2019-04-07T10:39:32.029Z,24.75
2019-04-07T10:42:19.004Z,23.18
2019-04-07T10:45:01.537Z,22.15
2019-04-07T10:47:41.200Z,21.65
2019-04-07T10:50:21.069Z,21.62
2019-04-07T10:53:00.226Z,21.07
2019-04-07T10:55:45.303Z,20.77
2019-04-07T10:58:32.289Z,20.88
2019-04-07T11:01:09.003Z,23.35
2019-04-07T11:03:56.418Z,23.27
2019-04-07T11:06:27.260Z,23.18
2019-04-07T11:08:57.857Z,24.65
2019-04-07T11:11:39.972Z,23.60
2019-04-07T11:14:10.068Z,23.25
2019-04-07T11:16:40.226Z,23.62
2019-04-07T11:19:13.253Z,22.67
2019-04-07T11:21:43.397Z,25.10
2019-04-07T11:24:25.252Z,24.35
2019-04-07T11:26:55.909Z,22.85
2019-04-07T11:29:27.037Z,21.82
2019-04-07T11:32:00.262Z,22.98
2019-04-07T11:34:30.518Z,25.25
2019-04-07T11:37:09.769Z,23.98
2019-04-07T11:39:55.089Z,22.77
2019-04-07T11:42:25.196Z,23.73
2019-04-07T11:45:01.317Z,24.12
2019-04-07T11:47:47.050Z,24.95
2019-04-07T11:50:17.346Z,25.95
2019-04-07T11:53:02.415Z,27.02
2019-04-07T11:55:49.179Z,25.90
2019-04-07T11:58:31.329Z,25.02
2019-04-07T12:00:57.148Z,24.72
2019-04-07T12:03:43.452Z,23.18
2019-04-07T12:06:14.235Z,24.18
2019-04-07T12:11:26.608Z,23.80
2019-04-07T12:17:05.798Z,25.43
2019-04-07T12:19:33.989Z,25.77
2019-04-07T12:22:12.821Z,24.98
2019-04-07T12:24:48.015Z,24.90
2019-04-07T12:27:27.315Z,26.42
2019-04-07T12:29:58.143Z,23.07
2019-04-07T12:32:37.781Z,26.10
2019-04-07T12:35:09.062Z,25.60
2019-04-07T12:37:48.818Z,26.10
2019-04-07T12:40:35.325Z,25.02
2019-04-07T12:43:21.788Z,25.77
2019-04-07T12:45:54.831Z,25.60
2019-04-07T12:48:43.535Z,22.95
2019-04-07T12:51:17.588Z,25.60
2019-04-07T12:53:49.034Z,25.88
2019-04-07T12:56:36.110Z,26.40
2019-04-07T12:59:22.704Z,25.15
2019-04-07T13:01:53.185Z,26.68
2019-04-07T13:04:29.857Z,26.37
2019-04-07T13:07:05.749Z,25.70
2019-04-07T13:09:36.592Z,23.12
2019-04-07T13:12:24.758Z,23.75
2019-04-07T13:15:14.479Z,24.50
2019-04-07T13:18:04.257Z,24.90
2019-04-07T13:20:49.097Z,22.32
2019-04-07T13:23:31.902Z,20.95
2019-04-07T13:26:02.241Z,19.02
2019-04-07T13:28:50.677Z,18.57
2019-04-07T13:31:24.429Z,19.52
2019-04-07T13:34:01.205Z,18.67
2019-04-07T13:36:39.550Z,20.95
2019-04-07T13:39:19.937Z,20.55
2019-04-07T13:42:06.191Z,18.45
2019-04-07T13:44:38.794Z,20.17
2019-04-07T13:47:09.365Z,17.48
2019-04-07T13:52:20.796Z,14.55
2019-04-07T13:55:04.633Z,16.35
2019-04-07T13:57:33.949Z,13.95
2019-04-07T14:00:04.180Z,15.23
2019-04-07T14:02:40.905Z,16.37
2019-04-07T14:05:28.364Z,15.18
2019-04-07T14:08:16.715Z,15.05
2019-04-07T14:10:59.276Z,16.17
2019-04-07T14:13:45.834Z,16.48
2019-04-07T14:16:16.020Z,13.75
2019-04-07T14:18:48.985Z,14.28
2019-04-07T14:23:55.416Z,13.10
2019-04-07T14:26:25.908Z,14.50
2019-04-07T14:28:58.904Z,15.40
2019-04-07T14:31:44.428Z,19.55
2019-04-07T14:34:41.389Z,11.35
2019-04-07T14:37:21.781Z,11.48
2019-04-07T14:39:52.313Z,11.53
2019-04-07T14:42:22.482Z,12.55
2019-04-07T14:45:01.379Z,10.70
2019-04-07T14:47:47.993Z,11.88
2019-04-07T14:50:21.131Z,10.93
2019-04-07T14:52:57.876Z,10.35
2019-04-07T14:55:45.157Z,11.68
2019-04-07T14:58:30.289Z,11.97
2019-04-07T15:01:04.793Z,12.28
2019-04-07T15:03:30.815Z,12.47
2019-04-07T15:05:59.565Z,11.50
2019-04-07T15:08:42.050Z,13.10
2019-04-07T15:11:24.964Z,11.53
2019-04-07T15:13:57.075Z,11.43
2019-04-07T15:16:23.931Z,12.40
2019-04-07T15:18:53.343Z,12.73
2019-04-07T15:21:22.173Z,14.13
2019-04-07T15:23:50.790Z,15.65
2019-04-07T15:26:19.358Z,15.83
2019-04-07T15:28:47.896Z,14.90
2019-04-07T15:31:18.351Z,16.40
2019-04-07T15:33:46.744Z,14.70
2019-04-07T15:36:18.726Z,15.78
2019-04-07T15:38:45.767Z,15.85
2019-04-07T15:41:16.932Z,16.32
2019-04-07T15:43:45.225Z,17.15
2019-04-07T15:46:16.576Z,15.18
2019-04-07T15:48:43.958Z,16.65
2019-04-07T15:51:13.337Z,16.20
2019-04-07T15:53:48.447Z,16.80
2019-04-07T15:56:15.086Z,18.15
2019-04-07T15:58:43.124Z,17.67
2019-04-07T16:01:11.841Z,18.42
2019-04-07T16:03:40.538Z,22.02
2019-04-07T16:06:09.683Z,17.55
2019-04-07T16:08:39.393Z,19.60
2019-04-07T16:11:08.420Z,18.30
2019-04-07T16:13:36.936Z,15.68
2019-04-07T16:16:05.834Z,15.88
2019-04-07T16:18:39.483Z,16.67
2019-04-07T16:21:08.857Z,16.62
2019-04-07T16:23:35.204Z,14.40
2019-04-07T16:26:03.864Z,16.10
2019-04-07T16:28:33.066Z,16.23
2019-04-07T16:31:01.669Z,14.98
2019-04-07T16:33:32.531Z,15.28
2019-04-07T16:36:00.392Z,13.60
2019-04-07T16:38:30.126Z,13.80
2019-04-07T16:40:59.008Z,15.63
2019-04-07T16:43:30.622Z,12.95
2019-04-07T16:45:58.297Z,16.20
2019-04-07T16:48:26.883Z,15.30
2019-04-07T16:50:55.492Z,14.58
2019-04-07T16:53:24.755Z,16.40
2019-04-07T16:55:55.583Z,13.13
2019-04-07T16:58:24.421Z,14.93
2019-04-07T17:00:53.674Z,16.15
2019-04-07T17:03:22.349Z,14.35
2019-04-07T17:05:55.707Z,14.45
2019-04-07T17:08:22.510Z,14.40
2019-04-07T17:10:51.338Z,17.17
2019-04-07T17:13:28.986Z,13.93
2019-04-07T17:15:53.832Z,14.65
2019-04-07T17:18:41.190Z,13.95
2019-04-07T17:21:14.022Z,13.13
2019-04-07T17:23:43.008Z,13.28
2019-04-07T17:26:11.666Z,14.58
2019-04-07T17:28:44.622Z,13.32
2019-04-07T17:31:11.783Z,15.45
2019-04-07T17:33:41.386Z,13.75
2019-04-07T17:36:10.090Z,15.13
2019-04-07T17:38:55.257Z,14.15
2019-04-07T17:41:23.713Z,14.47
2019-04-07T17:44:06.142Z,14.58
2019-04-07T17:46:39.589Z,15.18
2019-04-07T17:49:18.677Z,13.93
2019-04-07T17:51:54.464Z,14.13
2019-04-07T17:54:30.245Z,15.13
2019-04-07T17:57:06.921Z,13.35
2019-04-07T17:59:42.294Z,13.15
2019-04-07T18:02:11.859Z,14.07
2019-04-07T18:04:57.080Z,12.75
2019-04-07T18:07:37.682Z,13.35
2019-04-07T18:10:08.902Z,14.50
2019-04-07T18:12:40.100Z,15.23
2019-04-07T18:15:11.689Z,14.18
2019-04-07T18:17:57.557Z,15.23
2019-04-07T18:20:40.546Z,14.15
2019-04-07T18:23:24.122Z,14.25
2019-04-07T18:26:08.781Z,14.03
2019-04-07T18:28:39.185Z,14.53
2019-04-07T18:31:09.995Z,14.23
2019-04-07T18:33:40.227Z,14.03
2019-04-07T18:36:10.891Z,14.40
2019-04-07T18:38:58.865Z,15.38
2019-04-07T18:41:35.838Z,14.53
2019-04-07T18:44:07.937Z,14.55
2019-04-07T18:46:35.576Z,15.08
2019-04-07T18:49:06.091Z,15.23
2019-04-07T18:51:48.379Z,14.75
2019-04-07T18:54:26.907Z,17.02
2019-04-07T18:57:10.558Z,15.30
2019-04-07T18:59:44.365Z,15.00
2019-04-07T19:02:26.935Z,15.75
2019-04-07T19:05:00.166Z,16.30
2019-04-07T19:07:41.669Z,16.20
2019-04-07T19:10:25.537Z,15.38
2019-04-07T19:13:04.568Z,15.95
2019-04-07T19:15:47.193Z,16.10
2019-04-07T19:18:16.153Z,17.23
2019-04-07T19:20:49.108Z,16.00
2019-04-07T19:23:35.316Z,17.25
2019-04-07T19:26:17.027Z,15.40
2019-04-07T19:28:45.501Z,16.02
2019-04-07T19:31:19.434Z,16.20
2019-04-07T19:33:56.660Z,15.68
2019-04-07T19:36:45.026Z,15.45
2019-04-07T19:39:23.687Z,16.00
2019-04-07T19:41:53.640Z,15.80
2019-04-07T19:44:41.903Z,15.53
2019-04-07T19:47:23.316Z,17.67
2019-04-07T19:50:11.150Z,14.90
2019-04-07T19:52:44.382Z,15.90
2019-04-07T19:55:19.875Z,15.50
2019-04-07T19:58:02.741Z,20.12
2019-04-07T20:00:36.048Z,18.70
2019-04-07T20:03:13.542Z,16.93
2019-04-07T20:05:43.864Z,16.23
2019-04-07T20:08:33.829Z,15.03
2019-04-07T20:11:03.124Z,14.23
2019-04-07T20:13:50.886Z,14.87
2019-04-07T20:16:28.254Z,14.58
2019-04-07T20:19:14.632Z,15.05
2019-04-07T20:22:02.644Z,15.68
2019-04-07T20:24:46.433Z,15.38
2019-04-07T20:27:31.927Z,14.47
2019-04-07T20:30:08.329Z,14.87
2019-04-07T20:32:39.091Z,15.20
2019-04-07T20:35:12.339Z,15.53
2019-04-07T20:37:46.621Z,15.40
2019-04-07T20:40:38.849Z,16.32
2019-04-07T20:43:12.653Z,14.98
2019-04-07T20:45:50.092Z,14.55
2019-04-07T20:48:21.285Z,14.35
2019-04-07T20:51:08.402Z,14.90
2019-04-07T20:53:41.213Z,13.43
2019-04-07T20:56:27.596Z,13.45
2019-04-07T20:59:07.955Z,14.18
2019-04-07T21:01:36.559Z,14.73
2019-04-07T21:04:08.645Z,15.18
2019-04-07T21:06:42.155Z,14.53
2019-04-07T21:09:12.405Z,13.75
2019-04-07T21:11:47.003Z,13.20
2019-04-07T21:14:16.073Z,14.15
2019-04-07T21:17:02.961Z,14.10
2019-04-07T21:19:50.798Z,13.80
2019-04-07T21:22:43.239Z,13.88
2019-04-07T21:25:19.518Z,13.20
2019-04-07T21:27:50.528Z,13.38
2019-04-07T21:30:36.958Z,13.80
2019-04-07T21:33:22.380Z,13.43
2019-04-07T21:35:51.012Z,13.00
2019-04-07T21:38:33.244Z,13.78
2019-04-07T21:41:15.371Z,12.98
2019-04-07T21:44:01.812Z,13.40
2019-04-07T21:46:48.442Z,13.70
2019-04-07T21:49:37.177Z,12.75
2019-04-07T21:52:19.882Z,13.50
2019-04-07T21:54:48.286Z,14.13
2019-04-07T21:57:24.155Z,13.62
2019-04-07T22:00:10.614Z,12.85
2019-04-07T22:02:43.682Z,13.62
2019-04-07T22:05:13.515Z,13.48
2019-04-07T22:08:03.765Z,14.00
2019-04-07T22:10:29.333Z,13.78
2019-04-07T22:13:01.801Z,12.78
2019-04-07T22:15:35.062Z,12.80
2019-04-07T22:17:58.382Z,12.78
2019-04-07T22:20:27.794Z,13.20
2019-04-07T22:22:59.159Z,13.32
2019-04-07T22:28:30.261Z,13.22
2019-04-07T22:30:59.359Z,12.10
2019-04-07T22:33:30.851Z,12.23
2019-04-07T22:36:01.801Z,13.43
2019-04-07T22:41:25.042Z,12.33
2019-04-07T22:43:57.408Z,12.98
2019-04-07T22:46:27.336Z,12.65
2019-04-07T22:48:58.316Z,12.00
2019-04-07T22:51:26.350Z,11.45
2019-04-07T22:53:57.536Z,11.20
2019-04-07T22:56:25.050Z,11.00
2019-04-07T22:58:54.127Z,11.83
2019-04-07T23:01:23.031Z,11.53
2019-04-07T23:03:51.812Z,11.20
2019-04-07T23:06:21.078Z,10.98
2019-04-07T23:08:49.788Z,10.80
2019-04-07T23:11:18.483Z,11.40
2019-04-07T23:13:47.247Z,10.68
2019-04-07T23:16:17.385Z,10.85
2019-04-07T23:18:47.600Z,10.32
2019-04-07T23:21:17.128Z,10.00
2019-04-07T23:23:46.237Z,11.88
2019-04-07T23:26:14.844Z,11.10
2019-04-07T23:28:44.170Z,11.43
2019-04-07T23:31:13.683Z,11.12
2019-04-07T23:33:42.355Z,11.33
2019-04-07T23:36:11.611Z,12.18
2019-04-07T23:38:41.106Z,11.50
2019-04-07T23:41:09.692Z,11.20
2019-04-07T23:43:38.150Z,11.35
2019-04-07T23:46:19.449Z,10.68
2019-04-07T23:48:36.891Z,11.83
2019-04-07T23:51:05.853Z,11.60
2019-04-07T23:54:07.280Z,10.90
2019-04-07T23:56:36.552Z,11.40
2019-04-07T23:59:06.244Z,11.18
